Date,TemperatureHighF,TemperatureAvgF,TemperatureLowF,DewpointHighF,DewpointAvgF,DewpointLowF,HumidityHigh,HumidityAvg,HumidityLow,PressureMaxIn,PressureMinIn,WindSpeedMaxMPH,WindSpeedAvgMPH,GustSpeedMaxMPH,PrecipitationSumIn
2012-1-1,32,25,18,14,4,-5,65,41,33,30.41,30.23,8,2,8,0.00
2012-1-2,49,34,23,19,14,6,78,48,19,30.35,29.97,13,3,14,0.00
2012-1-3,48,42,38,15,11,6,36,27,19,30.23,30.00,14,4,15,0.00
2012-1-4,58,48,34,16,9,3,33,21,13,30.20,30.03,15,5,18,0.00
2012-1-5,53,44,30,16,7,2,33,23,13,30.03,29.91,15,5,17,0.00
2012-1-6,35,29,25,6,3,1,35,32,27,30.09,29.94,15,2,15,0.00
2012-1-7,32,26,21,7,4,0,43,38,33,30.11,29.97,10,3,10,0.00
2012-1-8,41,35,25,20,14,4,61,43,37,30.17,30.06,15,3,15,0.00
2012-1-9,44,37,28,21,18,13,69,46,31,30.17,29.97,10,3,10,0.00
2012-1-10,45,32,12,28,14,3,81,51,30,30.26,29.79,14,5,14,0.00
2012-1-11,20,12,4,4,-2,-6,65,55,42,30.26,30.17,9,3,9,0.00
2012-1-12,29,19,9,6,1,-6,58,44,32,30.17,30.03,8,2,9,0.00
2012-1-13,43,33,26,8,-1,-7,45,24,15,30.03,29.94,13,2,13,0.04
2012-1-14,47,35,23,10,3,-3,43,27,14,29.94,29.47,12,3,12,0.00
2012-1-15,40,20,5,20,0,-9,77,43,18,29.73,29.47,12,2,12,0.00
2012-1-16,15,7,-2,-1,-9,-16,50,48,37,29.85,29.73,10,2,10,0.00
2012-1-17,25,20,13,5,-4,-9,44,35,32,29.85,29.52,26,9,26,0.00
2012-1-18,24,2,-10,9,-6,-17,72,67,44,29.61,29.49,15,2,15,0.00
2012-1-19,9,2,-9,1,-6,-17,69,69,69,29.61,29.41,4,1,5,0.00
2012-1-20,37,14,-1,31,5,-9,96,66,37,29.73,29.44,9,1,9,0.00
2012-1-21,41,36,24,30,21,8,84,55,40,29.61,29.26,14,2,14,0.00
2012-1-22,34,28,24,13,4,-1,57,36,28,29.79,29.61,11,4,11,0.00
2012-1-23,36,30,21,14,7,0,43,38,32,29.91,29.67,13,4,13,0.00
2012-1-24,37,26,12,8,-2,-8,44,31,15,29.97,29.82,17,5,21,0.00
2012-1-25,44,37,31,31,16,8,81,43,30,30.00,29.76,23,6,25,0.12
2012-1-26,42,35,25,20,12,0,47,37,26,30.00,29.67,15,5,16,0.00
2012-1-27,30,25,21,2,-4,-11,38,28,18,30.20,30.00,14,4,15,0.00
2012-1-28,41,30,22,19,-2,-13,46,25,17,30.14,30.03,11,2,11,0.00
2012-1-29,50,46,40,21,17,9,41,32,22,30.03,29.70,18,6,18,0.00
2012-1-30,45,40,34,19,14,10,41,34,25,29.85,29.61,16,5,16,0.00
2012-1-31,42,34,27,16,10,6,50,37,26,30.00,29.85,13,4,13,0.00
2012-2-1,43,33,24,16,10,5,47,37,26,30.00,29.82,13,3,13,0.00
2012-2-2,34,30,20,25,15,8,86,55,42,30.23,30.00,9,2,9,0.04
2012-2-3,31,22,16,13,10,6,80,60,42,30.23,30.14,8,3,8,0.00
2012-2-4,34,23,14,11,8,4,70,51,36,30.17,30.09,8,3,8,0.00
2012-2-5,35,25,16,16,7,3,57,45,36,30.17,30.09,8,3,8,0.00
2012-2-6,31,26,22,23,17,13,88,70,55,30.23,30.17,6,2,8,0.00
2012-2-7,25,20,12,15,10,5,80,66,47,30.23,30.03,6,1,6,0.00
2012-2-8,36,23,9,13,7,2,73,53,32,30.09,30.00,5,2,6,0.00
2012-2-9,43,36,26,19,16,11,58,43,33,30.14,30.06,8,2,10,0.00
2012-2-10,29,21,16,15,11,8,75,65,51,30.11,30.03,7,1,7,0.00
2012-2-11,24,17,12,11,8,6,78,69,49,30.09,29.88,6,1,6,0.00
2012-2-12,30,22,12,23,13,6,82,69,51,29.91,29.70,6,1,6,0.00
2012-2-13,38,31,21,25,14,10,84,52,37,29.73,29.67,6,2,8,0.04
2012-2-14,34,27,19,16,8,0,75,45,31,29.79,29.67,10,3,10,0.00
2012-2-15,33,25,18,11,6,1,58,43,33,30.00,29.79,8,2,8,0.00
2012-2-16,35,26,13,10,5,0,62,42,30,30.03,29.94,9,2,9,0.00
2012-2-17,39,32,24,15,12,8,56,44,35,30.06,29.85,8,2,9,0.00
2012-2-18,37,30,23,16,9,5,55,41,30,29.88,29.70,12,3,12,0.00
2012-2-19,38,28,23,9,4,0,43,35,30,29.82,29.67,11,4,11,0.00
2012-2-20,33,28,23,12,4,0,48,36,31,29.82,29.73,10,3,10,0.00
2012-2-21,42,36,29,32,19,10,84,51,39,29.79,29.67,12,2,12,0.04
2012-2-22,44,38,26,32,23,8,82,54,35,29.73,29.44,17,5,17,0.08
2012-2-23,33,27,24,10,7,4,52,43,32,29.94,29.73,10,3,13,0.08
2012-2-24,39,31,24,12,8,4,46,36,29,29.97,29.64,11,3,11,0.04
2012-2-25,36,31,25,22,10,2,68,41,34,29.79,29.38,11,3,12,0.04
2012-2-26,32,25,18,10,6,1,67,43,30,29.94,29.76,8,2,9,0.00
2012-2-27,31,21,12,8,4,-1,69,50,32,29.94,29.79,8,3,9,0.00
2012-2-28,34,21,11,7,2,-4,54,43,31,29.79,29.70,10,3,10,0.04
2012-2-29,42,27,19,18,5,-2,68,39,28,29.70,29.47,15,3,15,0.00
2012-3-1,32,25,19,5,2,-5,43,35,31,29.85,29.61,13,4,13,0.00
2012-3-2,31,26,22,7,3,2,44,37,31,29.97,29.85,13,4,13,0.04
2012-3-3,44,37,28,20,14,6,42,39,35,29.94,29.85,13,3,14,0.04
2012-3-4,55,45,38,18,12,0,40,27,14,29.97,29.85,10,3,11,0.04
2012-3-5,56,48,36,20,8,2,51,20,13,29.85,29.47,20,7,20,0.04
2012-3-6,36,25,15,30,10,1,90,53,31,29.88,29.49,8,3,9,0.00
2012-3-7,35,26,14,7,3,-2,52,37,30,30.17,29.85,11,3,11,0.04
2012-3-8,46,34,20,14,9,2,52,35,17,30.26,30.17,8,3,8,0.04
2012-3-9,63,49,34,13,6,-2,37,19,10,30.20,29.91,13,4,14,0.04
2012-3-10,60,48,33,10,3,-6,30,16,11,29.91,29.64,15,4,15,0.04
2012-3-11,60,43,32,22,12,2,54,31,12,29.73,29.44,20,4,20,0.00
2012-3-12,52,39,25,18,12,7,57,35,21,29.76,29.61,16,4,17,0.00
2012-3-13,56,47,28,17,9,5,61,23,15,29.73,29.35,27,6,32,0.00
2012-3-14,44,35,28,20,13,5,59,40,32,29.85,29.70,6,1,10,0.00
2012-3-15,60,49,32,24,20,16,68,33,24,29.85,29.70,15,4,19,0.00
2012-3-16,52,42,32,36,26,18,82,54,28,29.70,29.58,13,3,13,0.12
2012-3-17,52,38,32,36,29,19,86,72,38,29.58,29.26,14,2,14,0.12
2012-3-18,35,32,28,31,28,25,93,86,74,29.44,29.26,8,1,8,0.00
2012-3-19,35,29,22,26,18,4,90,66,40,29.70,29.44,11,3,11,0.00
2012-3-20,42,32,22,17,10,3,44,39,32,29.70,29.64,21,6,22,0.08
2012-3-21,56,42,28,27,20,15,84,44,25,29.82,29.70,14,4,14,0.16
2012-3-22,63,50,36,22,17,8,51,28,11,29.82,29.70,15,4,15,0.00
2012-3-23,37,33,30,29,24,16,88,69,46,30.00,29.76,8,2,8,0.00
2012-3-24,35,31,25,32,28,23,95,90,87,30.03,29.94,4,1,6,0.12
2012-3-25,46,34,29,34,29,27,95,83,50,29.94,29.67,6,1,6,0.00
2012-3-26,53,39,30,40,28,19,97,69,40,29.76,29.44,10,2,10,0.00
2012-3-27,55,45,34,20,13,7,54,30,15,29.82,29.76,13,4,13,0.00
2012-3-28,55,43,32,34,21,12,83,45,24,29.85,29.64,13,2,13,0.12
2012-3-29,54,43,31,27,14,7,82,33,15,29.85,29.64,17,5,19,0.00
2012-3-30,61,52,43,26,20,15,50,28,19,29.67,29.52,24,8,27,0.00
2012-3-31,67,53,40,34,27,22,59,39,20,29.64,29.38,13,3,15,0.00
2012-4-1,49,39,31,40,21,6,93,52,28,29.91,29.35,12,3,12,0.24
2012-4-2,47,36,27,12,5,-4,37,28,14,30.09,29.94,9,3,9,0.00
2012-4-3,62,44,26,14,6,0,42,24,11,30.09,29.76,10,3,10,0.00
2012-4-4,65,46,31,22,11,2,37,26,10,29.82,29.52,19,3,19,0.00
2012-4-5,45,36,29,21,10,3,61,35,20,29.82,29.79,10,2,10,0.00
2012-4-6,34,31,26,28,24,18,93,76,53,29.97,29.70,8,3,9,0.00
2012-4-7,44,32,22,22,14,9,83,49,29,30.09,29.97,10,3,11,0.20
2012-4-8,50,37,24,19,14,9,58,41,26,30.17,30.06,10,3,10,0.00
2012-4-9,53,38,26,20,14,7,48,37,27,30.17,29.97,8,3,8,0.00
2012-4-10,62,44,31,26,22,18,65,43,24,30.03,29.82,8,3,9,0.00
2012-4-11,72,51,35,28,22,6,62,37,9,29.85,29.52,11,3,12,0.00
2012-4-12,54,46,36,37,24,15,87,44,27,29.73,29.55,10,3,11,0.24
2012-4-13,56,42,30,22,16,7,60,37,15,29.73,29.58,9,3,9,0.00
2012-4-14,57,44,32,20,10,-4,46,28,10,29.79,29.61,13,4,13,0.00
2012-4-15,39,32,29,28,23,16,88,71,44,30.00,29.79,8,2,8,0.12
2012-4-16,54,42,30,28,22,16,88,48,26,30.00,29.82,8,2,10,0.04
2012-4-17,56,46,37,26,17,7,52,33,15,30.00,29.94,11,3,11,0.04
2012-4-18,53,45,38,31,20,14,72,38,27,29.94,29.79,12,3,12,0.00
2012-4-19,53,43,34,29,16,5,79,37,16,30.03,29.91,10,3,13,0.00
2012-4-20,66,54,43,28,20,12,46,28,13,30.03,29.85,11,4,12,0.00
2012-4-21,64,53,44,31,27,24,58,38,25,30.11,30.03,9,2,10,0.00
2012-4-22,76,57,40,31,20,8,58,29,8,30.11,30.00,8,3,8,0.00
2012-4-23,81,63,48,38,24,15,38,24,10,30.00,29.85,11,3,11,0.00
2012-4-24,76,65,54,31,24,14,34,21,10,29.88,29.79,15,4,15,0.00
2012-4-25,74,59,47,32,26,18,46,31,13,29.88,29.79,19,3,19,0.00
2012-4-26,72,59,48,41,33,22,71,41,17,29.79,29.47,20,4,20,0.00
2012-4-27,48,38,36,33,17,12,71,42,34,29.97,29.64,13,4,13,0.04
2012-4-28,45,39,36,26,18,14,55,41,33,30.00,29.97,8,2,9,0.00
2012-4-29,54,45,37,23,18,16,43,35,26,29.97,29.85,10,3,11,0.00
2012-4-30,61,48,41,36,23,16,67,37,24,29.85,29.55,15,4,16,0.00
2012-5-1,54,45,36,22,14,3,51,31,15,29.70,29.67,10,3,11,0.00
2012-5-2,51,38,28,20,13,8,50,36,21,29.82,29.64,13,3,13,0.00
2012-5-3,54,42,28,39,20,8,82,43,28,29.79,29.64,10,3,11,0.08
2012-5-4,59,46,35,36,27,21,87,50,25,29.97,29.79,10,3,10,0.12
2012-5-5,50,41,34,26,16,10,61,38,21,30.17,29.97,13,4,13,0.00
2012-5-6,51,42,34,20,14,10,40,32,21,30.26,30.14,13,4,13,0.00
2012-5-7,63,47,32,21,14,4,44,29,11,30.26,30.09,9,3,10,0.00
2012-5-8,73,56,38,24,14,5,39,22,9,30.11,29.94,10,3,10,0.00
2012-5-9,76,57,45,25,15,8,30,20,8,29.94,29.73,10,3,10,0.00
2012-5-10,53,46,35,21,4,-8,31,19,11,30.09,29.85,13,3,13,0.00
2012-5-11,59,44,27,6,0,-7,26,16,12,30.09,30.03,9,3,9,0.00
2012-5-12,67,51,35,9,3,-5,20,14,10,30.14,30.06,9,3,10,0.00
2012-5-13,77,59,43,12,6,-1,18,12,8,30.14,30.09,11,3,11,0.00
2012-5-14,77,63,48,14,7,1,16,11,8,30.14,30.09,10,3,10,0.00
2012-5-15,83,65,45,26,14,7,30,16,6,30.09,29.94,9,3,10,0.00
2012-5-16,84,69,56,26,12,6,25,11,6,29.94,29.82,10,3,10,0.00
2012-5-17,68,58,47,41,17,4,77,25,10,29.88,29.76,9,2,9,0.00
2012-5-18,62,51,40,33,19,5,60,32,11,29.97,29.76,13,3,13,0.00
2012-5-19,64,49,34,23,15,8,45,28,13,30.03,29.91,10,4,10,0.00
2012-5-20,70,55,36,27,20,13,46,27,12,30.03,29.94,9,3,9,0.00
2012-5-21,79,61,52,50,32,20,82,36,12,30.06,29.79,13,3,14,0.04
2012-5-22,59,52,45,50,30,17,81,47,24,29.82,29.70,10,3,12,0.12
2012-5-23,54,46,38,24,20,15,56,36,26,29.76,29.67,13,3,13,0.00
2012-5-24,52,44,39,26,21,17,59,41,29,29.85,29.67,13,3,14,0.00
2012-5-25,43,38,35,32,26,17,76,63,37,29.88,29.79,10,2,11,0.04
2012-5-26,40,36,33,34,30,23,97,80,58,29.85,29.79,8,2,8,0.28
2012-5-27,37,34,32,35,32,31,98,95,88,29.94,29.76,7,0,7,0.43
2012-5-28,54,42,33,45,34,28,98,75,40,30.00,29.91,10,2,10,0.91
2012-5-29,65,51,37,43,30,22,74,48,24,30.00,29.88,12,3,12,0.04
2012-5-30,58,51,43,28,21,14,49,31,22,30.11,29.94,8,2,8,0.00
2012-5-31,64,50,41,37,31,25,62,48,34,30.11,29.97,7,2,8,0.00
2012-6-1,70,60,53,40,36,31,62,41,25,30.00,29.88,9,2,9,0.00
2012-6-2,73,56,48,49,38,30,83,52,24,29.91,29.67,10,3,10,0.08
2012-6-3,71,56,43,35,30,26,61,38,23,29.94,29.88,9,3,9,0.00
2012-6-4,87,64,48,43,37,33,61,40,16,29.94,29.70,14,3,14,0.00
2012-6-5,76,59,42,51,42,32,94,57,23,29.76,29.61,15,4,20,0.12
2012-6-6,61,49,40,34,23,12,77,40,14,30.03,29.73,17,5,17,0.16
2012-6-7,71,54,36,29,16,6,55,28,9,30.03,29.85,10,4,11,0.00
2012-6-8,66,55,42,44,24,7,84,34,15,29.85,29.70,11,3,11,0.08
2012-6-9,57,47,35,35,22,11,85,43,17,29.76,29.64,11,3,11,0.00
2012-6-10,48,46,43,28,23,18,50,41,34,30.00,29.73,13,4,13,0.00
2012-6-11,69,54,40,32,28,24,62,39,22,30.03,30.00,9,2,9,0.00
2012-6-12,74,58,45,44,30,23,74,36,16,30.03,29.88,12,3,12,0.00
2012-6-13,66,56,48,47,33,19,87,46,18,29.91,29.79,10,4,11,0.35
2012-6-14,71,58,43,30,24,17,45,28,15,29.94,29.88,9,3,9,0.00
2012-6-15,72,60,47,27,17,5,37,21,9,30.11,29.88,14,4,14,0.00
2012-6-16,78,61,45,28,18,7,37,22,8,30.11,29.91,10,3,10,0.00
2012-6-17,77,67,59,40,22,7,40,20,10,29.91,29.70,13,3,13,0.00
2012-6-18,70,56,48,26,19,11,37,24,12,29.82,29.61,15,3,15,0.00
2012-6-19,62,52,44,26,22,20,40,32,24,29.97,29.79,11,4,11,0.00
2012-6-20,70,56,42,29,25,21,47,31,20,30.09,29.97,9,3,9,0.00
2012-6-21,80,63,43,32,22,8,51,25,7,30.09,29.94,9,3,9,0.00
2012-6-22,76,61,50,51,37,30,71,43,22,29.97,29.76,9,3,9,0.00
2012-6-23,81,66,52,47,44,40,79,48,25,29.88,29.76,10,3,10,0.00
2012-6-24,94,71,53,52,38,6,89,44,4,30.03,29.88,17,3,17,0.00
2012-6-25,93,75,61,56,38,6,79,40,4,30.03,29.82,23,4,23,0.00
2012-6-26,84,66,49,54,29,6,79,34,6,29.94,29.64,22,4,22,0.00
2012-6-27,77,60,43,21,14,6,38,19,8,30.06,29.91,13,4,13,0.00
2012-6-28,87,66,47,26,16,8,33,17,6,30.03,29.97,11,4,11,0.00
2012-6-29,87,70,54,33,21,9,36,18,6,30.09,29.91,15,3,15,0.00
2012-6-30,87,71,55,37,28,15,46,24,8,30.06,29.88,11,3,11,0.00
2012-7-1,84,68,55,54,35,22,86,36,11,30.00,29.79,15,4,15,0.31
2012-7-2,82,66,51,49,41,32,83,45,20,30.00,29.85,10,3,10,0.00
2012-7-3,80,68,56,43,32,21,50,29,15,30.00,29.67,15,4,15,0.00
2012-7-4,80,62,43,29,21,7,50,23,7,30.03,29.94,10,3,10,0.00
2012-7-5,80,63,51,36,19,10,40,19,10,30.03,29.97,10,2,10,0.00
2012-7-6,82,67,52,41,34,17,56,33,9,30.17,30.03,17,4,17,0.00
2012-7-7,88,68,58,40,33,17,47,29,8,30.23,30.17,17,3,18,0.28
2012-7-8,90,72,55,41,28,9,49,25,5,30.20,30.14,10,3,10,0.00
2012-7-9,94,77,59,38,23,6,36,18,4,30.23,30.14,9,3,9,0.00
2012-7-10,90,75,63,36,25,9,33,17,6,30.17,30.06,20,4,20,0.00
2012-7-11,88,70,57,38,28,15,41,24,8,30.09,30.03,17,3,17,0.00
2012-7-12,93,75,54,34,24,6,40,19,4,30.06,30.00,9,3,10,0.00
2012-7-13,84,74,63,52,27,12,66,19,12,30.11,29.97,13,3,15,0.00
2012-7-14,82,68,59,56,47,42,89,50,24,30.09,29.91,12,3,13,0.12
2012-7-15,79,66,58,58,46,33,90,53,20,29.97,29.85,26,3,26,0.16
2012-7-16,79,63,53,57,45,35,91,56,22,30.00,29.91,11,3,11,0.24
2012-7-17,80,64,54,55,47,32,92,58,22,29.97,29.88,10,3,10,0.24
2012-7-18,91,75,57,41,26,9,44,22,5,30.03,29.91,14,4,14,0.00
2012-7-19,92,78,66,34,21,8,30,14,5,30.11,30.03,10,4,10,0.00
2012-7-20,92,74,65,50,29,14,52,21,7,30.14,30.06,11,3,12,0.04
2012-7-21,88,72,58,44,35,15,57,30,8,30.14,30.09,10,3,10,0.00
2012-7-22,92,74,59,34,25,6,34,19,5,30.14,30.00,12,4,16,0.00
2012-7-23,91,76,62,36,22,7,31,16,6,30.06,29.94,17,4,17,0.00
2012-7-24,85,68,50,16,9,2,17,10,6,30.06,29.94,15,3,15,0.00
2012-7-25,85,70,53,33,20,9,37,19,6,30.06,29.97,14,3,14,0.00
2012-7-26,79,67,54,55,34,25,75,32,17,30.06,30.00,12,4,12,0.12
2012-7-27,84,66,56,52,36,23,79,36,13,30.11,29.91,22,4,22,0.12
2012-7-28,86,69,52,49,36,15,66,34,10,30.11,30.00,20,3,20,0.04
2012-7-29,88,74,59,35,25,13,34,18,8,30.09,30.06,10,3,11,0.04
2012-7-30,93,75,59,32,18,6,26,13,4,30.06,29.97,14,4,14,0.04
2012-7-31,90,75,62,33,20,8,31,14,6,30.06,30.00,10,3,10,0.04
2012-8-1,88,74,61,15,10,6,14,9,5,30.09,30.03,13,4,13,0.00
2012-8-2,82,70,55,27,10,4,25,10,7,30.03,29.91,13,4,13,0.00
2012-8-3,69,57,44,48,32,19,95,44,17,30.11,30.00,10,4,12,0.04
2012-8-4,80,64,45,34,22,8,54,25,7,30.11,30.09,9,4,10,0.00
2012-8-5,91,72,53,22,12,6,24,11,4,30.11,30.06,10,3,10,0.04
2012-8-6,90,76,64,27,15,8,23,11,5,30.20,30.09,11,4,12,0.00
2012-8-7,91,74,57,33,20,6,35,16,4,30.17,30.11,13,3,14,0.00
2012-8-8,96,76,59,31,12,6,23,9,4,30.17,30.06,12,3,13,0.00
2012-8-9,89,76,62,35,25,14,32,17,8,30.14,30.06,8,3,8,0.00
2012-8-10,79,70,59,43,35,13,54,30,12,30.09,29.97,16,3,16,0.12
2012-8-11,85,71,56,42,28,9,56,26,6,30.11,29.97,10,2,10,0.12
2012-8-12,86,69,54,39,30,9,54,27,8,30.11,30.03,9,3,9,0.12
2012-8-13,90,73,55,37,22,8,43,19,5,30.06,30.00,11,3,11,0.12
2012-8-14,90,78,61,17,11,7,16,8,5,30.00,29.88,15,4,15,0.00
2012-8-16,78,70,59,29,24,19,31,19,13,30.03,30.00,9,3,9,0.00
2012-8-17,84,68,52,32,19,6,40,20,6,30.11,30.03,9,3,9,0.00
2012-8-18,86,70,53,21,11,5,23,11,6,30.11,30.03,9,3,11,0.00
2012-8-19,87,69,54,25,14,7,26,13,6,30.06,29.97,9,3,9,0.00
2012-8-20,87,72,58,26,14,9,22,12,6,30.06,30.00,8,3,8,0.00
2012-8-21,90,71,58,54,24,9,84,22,5,30.03,29.91,15,4,15,0.16
2012-8-22,83,66,52,52,34,12,83,39,9,30.00,29.91,11,3,11,0.04
2012-8-23,83,69,56,21,12,6,22,12,6,29.94,29.82,9,4,10,0.00
2012-8-24,71,62,50,22,10,3,28,14,9,30.03,29.85,13,4,13,0.00
2012-8-25,76,59,40,22,11,0,35,17,8,30.03,29.91,9,4,9,0.00
2012-8-26,85,65,46,16,8,0,20,11,6,30.03,29.91,9,3,9,0.00
2012-8-27,92,74,58,36,25,9,37,19,5,30.11,29.97,12,3,12,0.00
2012-8-28,94,74,56,36,23,6,44,20,4,30.09,29.85,18,4,18,0.00
2012-8-29,78,68,55,20,11,6,15,11,8,30.03,29.82,15,4,15,0.00
2012-8-30,78,64,49,24,14,6,30,16,8,30.03,29.91,10,4,10,0.00
2012-8-31,89,69,50,30,11,4,24,12,5,29.91,29.79,17,4,17,0.00
2012-9-1,80,66,53,43,27,4,56,26,9,30.00,29.85,14,4,14,0.04
2012-9-2,77,60,40,14,6,-3,18,12,8,30.00,29.94,9,3,9,0.00
2012-9-3,78,62,44,12,6,-4,15,11,8,30.03,29.97,10,3,10,0.00
2012-9-4,70,60,49,14,8,2,19,12,9,30.06,29.97,11,3,11,0.00
2012-9-5,77,62,47,23,14,7,37,18,8,30.06,29.88,13,4,13,0.00
2012-9-6,62,53,45,35,28,18,59,39,22,30.11,30.00,13,2,13,0.00
2012-9-7,74,58,40,35,24,7,77,36,9,30.20,30.09,10,3,10,0.00
2012-9-8,82,64,46,24,15,7,33,17,6,30.20,30.03,10,3,10,0.00
2012-9-9,85,68,51,14,8,2,15,10,6,30.06,29.79,13,4,14,0.00
2012-9-10,78,63,52,22,14,6,26,15,8,29.94,29.79,17,3,17,0.00
2012-9-11,61,50,38,22,10,-6,46,22,10,30.09,29.91,13,3,13,0.00
2012-9-12,65,52,39,9,4,-2,21,14,10,30.20,30.09,10,3,10,0.00
2012-9-13,74,57,44,11,5,-1,18,13,8,30.26,30.20,9,4,9,0.00
2012-9-14,79,61,47,12,6,0,14,11,7,30.20,30.06,10,3,11,0.00
2012-9-15,76,63,49,11,6,-3,12,10,8,30.09,30.03,10,3,10,0.00
2012-9-16,63,57,47,17,11,6,29,16,11,30.14,30.06,8,3,8,0.00
2012-9-17,73,58,41,25,14,5,41,21,9,30.11,30.00,8,3,8,0.00
2012-9-18,80,64,49,21,11,5,27,13,7,30.06,29.97,11,4,11,0.00
2012-9-19,79,62,45,24,13,4,36,16,8,30.11,30.06,9,3,9,0.00
2012-9-20,78,65,50,13,8,2,16,11,8,30.11,30.06,10,3,10,0.00
2012-9-21,79,64,50,17,10,5,24,13,7,30.11,30.06,10,3,10,0.00
2012-9-22,78,62,49,24,16,8,31,18,8,30.09,30.00,9,3,9,0.00
2012-9-23,73,61,50,23,16,11,27,18,11,30.06,30.03,8,3,8,0.00
2012-9-24,75,61,49,25,18,8,34,21,8,30.03,29.91,9,4,9,0.00
2012-9-25,72,61,50,32,24,12,42,26,12,30.00,29.91,8,3,9,0.00
2012-9-26,67,55,45,36,31,22,64,41,24,30.09,29.97,8,3,8,0.00
2012-9-27,71,52,43,38,32,25,78,51,19,30.06,30.00,9,3,9,0.00
2012-9-28,77,60,46,31,22,7,51,27,8,30.03,29.91,8,2,8,0.00
2012-9-29,73,65,57,29,20,11,28,19,11,30.09,29.97,11,3,11,0.00
2012-9-30,71,60,50,30,21,10,43,24,12,30.23,30.09,10,3,10,0.00
2012-10-1,75,60,46,25,16,8,37,21,8,30.23,29.91,10,4,10,0.00
2012-10-2,71,61,42,33,12,4,67,17,9,29.91,29.79,12,3,12,0.00
2012-10-3,43,34,30,33,26,20,93,73,57,30.29,29.91,14,3,14,0.16
2012-10-4,38,33,27,24,20,16,82,62,44,30.29,30.17,6,1,8,0.12
2012-10-5,31,31,31,22,22,22,70,70,70,30.20,30.20,0,0,0,0.00
2012-10-7,59,50,44,15,9,4,29,20,12,29.97,29.85,6,2,6,0.00
2012-10-8,50,44,36,32,22,12,75,43,27,30.06,29.91,10,2,10,0.00
2012-10-9,54,41,34,25,22,17,66,48,26,30.06,30.00,8,2,8,0.00
2012-10-10,62,46,35,31,21,11,70,41,14,30.03,29.88,11,3,11,0.00
2012-10-11,52,40,33,29,23,19,71,51,32,30.06,29.91,8,2,8,0.00
2012-10-12,68,50,32,28,18,3,79,37,10,29.91,29.73,8,2,9,0.00
2012-10-13,59,53,47,28,19,2,41,28,13,30.06,29.82,11,3,11,0.00
2012-10-14,65,55,44,27,23,15,46,30,17,30.06,29.91,13,4,13,0.00
2012-10-15,61,55,46,37,25,14,59,33,17,29.94,29.82,11,3,13,0.00
2012-10-16,59,50,38,44,23,5,86,38,16,29.85,29.49,17,5,19,0.16
2012-10-17,46,40,34,11,7,0,33,26,17,30.11,29.85,16,4,16,0.16
2012-10-18,58,41,27,19,10,2,46,30,12,30.14,29.94,10,2,10,0.00
2012-10-19,67,56,41,28,16,8,37,21,12,29.94,29.70,15,5,15,0.00
2012-10-20,54,46,34,31,21,9,51,38,27,29.82,29.58,14,4,14,0.00
2012-10-21,45,35,27,13,9,6,43,35,22,29.82,29.79,8,3,9,0.00
2012-10-22,38,30,25,27,14,4,86,54,34,29.82,29.55,7,2,7,0.00
2012-10-23,28,25,21,22,20,16,87,81,75,29.88,29.61,6,1,6,0.00
2012-10-24,31,24,18,20,17,13,82,75,59,30.06,29.88,8,2,8,0.00
2012-10-25,25,21,17,18,11,6,82,65,46,30.23,30.03,6,2,6,0.00
2012-10-26,33,25,15,19,13,9,81,63,45,30.26,29.97,8,1,9,0.00
2012-10-27,39,33,28,28,21,13,79,63,46,29.97,29.91,8,2,8,0.04
2012-10-28,57,49,37,30,26,21,57,41,30,29.91,29.79,11,2,11,0.08
2012-10-29,58,53,48,32,27,19,41,36,29,30.00,29.82,14,5,14,0.00
2012-10-30,63,54,46,24,20,14,38,27,16,30.03,29.91,14,5,15,0.00
2012-10-31,63,55,48,26,21,17,35,27,18,29.97,29.82,10,3,10,0.00
2012-11-1,58,50,40,23,20,15,49,31,19,29.91,29.76,10,2,10,0.00
2012-11-2,51,43,35,36,23,16,89,47,30,30.06,29.91,10,3,10,0.00
2012-11-3,52,41,31,26,21,16,62,45,29,30.06,30.00,8,2,8,0.00
2012-11-4,57,51,46,29,26,24,44,37,31,30.23,30.03,17,3,17,0.00
2012-11-5,64,56,48,29,26,21,38,32,24,30.23,30.06,14,4,14,0.00
2012-11-6,60,51,42,29,24,17,49,36,22,30.17,29.91,13,2,13,0.00
2012-11-7,63,50,32,27,15,8,41,26,16,29.94,29.73,19,5,19,0.00
2012-11-8,32,26,24,21,16,9,83,68,40,29.94,29.67,6,1,6,0.00
2012-11-9,24,16,8,20,7,-4,83,68,57,29.79,29.64,7,1,8,0.00
2012-11-10,10,5,-1,-2,-6,-12,58,58,58,29.82,29.73,7,1,7,0.00
2012-11-11,26,18,0,5,0,-11,58,47,38,30.09,29.79,9,3,9,0.00
2012-11-12,34,25,18,17,8,1,64,47,39,30.09,30.03,12,3,12,0.00
2012-11-13,42,36,31,23,16,13,70,43,34,30.11,30.03,15,5,15,0.00
2012-11-14,42,37,32,18,16,13,51,42,35,30.14,29.97,11,4,11,0.00
2012-11-15,37,31,26,16,12,9,52,44,37,30.14,29.97,10,4,11,0.00
2012-11-16,40,34,27,30,16,9,83,48,34,29.97,29.88,16,2,16,0.00
2012-11-17,48,40,31,28,20,17,78,47,32,29.94,29.70,9,2,9,0.47
2012-11-18,46,39,30,26,17,4,62,41,28,29.94,29.64,11,3,11,0.04
2012-11-19,50,43,28,18,13,2,37,30,26,29.94,29.85,20,6,20,0.04
2012-11-20,54,51,44,22,20,17,38,30,26,29.85,29.76,15,6,15,0.04
2012-11-21,49,38,30,35,22,5,92,54,30,29.91,29.67,13,3,13,0.16
2012-11-22,36,30,22,15,7,3,53,38,30,30.32,29.91,15,3,15,0.00
2012-11-23,35,28,21,14,7,2,46,41,35,30.29,29.97,6,2,6,0.00
2012-11-24,46,39,34,23,17,8,56,41,22,29.97,29.91,9,2,10,0.00
2012-11-25,36,32,25,22,11,3,69,43,31,30.14,29.85,8,2,9,0.00
2012-11-26,31,23,16,8,4,0,51,43,34,30.14,29.97,8,3,9,0.00
2012-11-27,36,28,20,12,6,3,48,39,32,30.06,29.97,8,2,8,0.00
2012-11-28,46,35,28,18,12,7,47,38,28,30.00,29.79,14,2,14,0.00
2012-11-29,52,45,37,24,18,12,56,35,24,29.88,29.76,13,4,14,0.00
2012-11-30,51,45,36,36,21,15,85,40,29,29.76,29.55,13,4,13,0.04
2012-12-1,51,43,36,29,21,17,68,41,27,29.76,29.67,17,6,17,0.00
2012-12-2,54,44,32,31,20,10,78,39,27,29.76,29.29,24,6,24,0.00
2012-12-3,42,37,33,12,10,9,38,32,29,30.06,29.76,15,6,16,0.00
2012-12-4,48,42,33,23,15,7,41,34,30,30.06,29.82,18,5,18,0.00
2012-12-5,51,42,27,32,17,5,68,36,29,29.97,29.70,17,5,17,0.00
2012-12-6,34,28,24,18,11,6,73,48,35,29.94,29.79,6,1,6,0.00
2012-12-7,36,30,25,22,9,5,80,42,30,29.82,29.58,19,5,19,0.00
2012-12-8,26,17,5,19,4,-6,77,57,37,30.06,29.58,11,3,12,0.00
2012-12-9,24,12,2,8,-2,-8,60,53,39,30.14,29.91,10,2,10,0.00
2012-12-10,32,28,22,13,9,6,56,45,37,29.91,29.82,10,3,10,0.00
2012-12-11,42,36,31,15,13,10,45,39,31,29.88,29.52,15,4,15,0.00
2012-12-12,37,32,26,30,19,14,89,58,42,29.79,29.49,8,2,8,0.04
2012-12-13,34,24,16,19,11,6,74,57,32,29.82,29.73,10,2,10,0.00
2012-12-14,34,23,16,14,10,5,79,59,41,29.73,29.58,6,1,8,0.00
2012-12-15,31,24,18,10,7,3,68,48,40,29.73,29.55,8,2,8,0.00
2012-12-16,33,27,15,7,3,-4,62,35,26,29.64,29.49,14,5,14,0.00
2012-12-17,39,30,23,28,8,-2,84,40,30,29.55,29.32,13,4,17,0.00
2012-12-18,28,22,14,0,-4,-8,37,32,24,29.79,29.55,11,4,11,0.00
2012-12-19,26,19,11,-1,-8,-11,38,30,22,29.94,29.76,15,6,15,0.00
2012-12-20,35,26,16,6,-2,-8,35,30,25,29.94,29.88,15,5,15,0.00
2012-12-21,38,30,22,6,0,-3,34,28,19,29.91,29.82,11,3,11,0.00
2012-12-22,30,20,12,5,3,0,60,47,31,29.88,29.67,8,1,8,0.00
2012-12-23,36,24,12,17,3,-3,78,44,22,29.85,29.67,12,2,13,0.00
2012-12-24,16,3,-1,7,-4,-8,70,70,64,30.03,29.70,8,1,8,0.00
2012-12-25,9,4,-1,1,-3,-8,70,70,70,30.03,29.76,5,1,5,0.00
2012-12-26,21,15,8,14,6,1,75,66,54,29.76,29.61,6,0,6,0.00
2012-12-27,31,24,17,15,9,6,74,51,41,29.85,29.64,8,2,8,0.00
2012-12-28,32,25,16,10,5,1,54,42,32,29.97,29.82,10,3,10,0.00
2012-12-29,26,19,11,4,1,-3,56,46,34,29.97,29.82,8,2,8,0.00
2012-12-30,29,19,14,11,4,-3,78,52,37,29.88,29.82,6,2,8,0.00
2012-12-31,24,19,11,4,1,-4,50,45,38,30.03,29.85,10,2,10,0.00
2013-1-1,29,20,11,6,3,-4,61,46,36,30.17,30.03,8,2,8,0.00